createdAt,value
2023-05-02T00:00:53.665Z,1840.00
2023-05-02T00:01:53.661Z,1843.00
2023-05-02T00:03:53.838Z,1838.00
2023-05-02T00:04:53.612Z,1826.00
2023-05-02T00:05:53.662Z,1831.00
2023-05-02T00:06:53.747Z,1832.00
2023-05-02T00:07:53.717Z,1831.00
2023-05-02T00:08:53.752Z,1833.00
2023-05-02T00:09:53.802Z,1825.00
2023-05-02T00:10:53.835Z,1835.00
2023-05-02T00:11:53.889Z,1820.00
2023-05-02T00:12:53.903Z,1824.00
2023-05-02T00:13:53.947Z,1823.00
2023-05-02T00:14:53.923Z,1824.00
2023-05-02T00:15:53.899Z,1826.00
2023-05-02T00:16:53.947Z,1824.00
2023-05-02T00:17:53.899Z,1826.00
2023-05-02T00:18:53.852Z,1825.00
2023-05-02T00:19:53.840Z,1832.00
2023-05-02T00:20:53.826Z,1828.00
2023-05-02T00:21:53.821Z,1831.00
2023-05-02T00:22:53.806Z,1819.00
2023-05-02T00:23:53.796Z,1825.00
2023-05-02T00:24:53.795Z,1825.00
2023-05-02T00:25:53.790Z,1820.00
2023-05-02T00:26:53.764Z,1819.00
2023-05-02T00:27:53.773Z,1806.00
2023-05-02T00:28:53.744Z,1816.00
2023-05-02T00:29:53.783Z,1811.00
2023-05-02T00:30:53.862Z,1804.00
2023-05-02T00:31:53.856Z,1816.00
2023-05-02T00:32:53.902Z,1809.00
2023-05-02T00:33:53.916Z,1801.00
2023-05-02T00:34:53.929Z,1802.00
2023-05-02T00:35:53.915Z,1804.00
2023-05-02T00:36:53.896Z,1805.00
2023-05-02T00:37:53.914Z,1805.00
2023-05-02T00:38:53.864Z,1812.00
2023-05-02T00:39:53.858Z,1805.00
2023-05-02T00:40:53.846Z,1803.00
2023-05-02T00:41:53.826Z,1806.00
2023-05-02T00:42:53.824Z,1797.00
2023-05-02T00:43:53.793Z,1806.00
2023-05-02T00:44:53.776Z,1802.00
2023-05-02T00:45:53.844Z,1789.00
2023-05-02T00:46:53.881Z,1805.00
2023-05-02T00:47:53.810Z,1804.00
2023-05-02T00:48:53.806Z,1795.00
2023-05-02T00:49:53.828Z,1780.00
2023-05-02T00:50:53.870Z,1793.00
2023-05-02T00:51:53.862Z,1795.00
2023-05-02T00:52:53.844Z,1796.00
2023-05-02T00:53:53.820Z,1796.00
2023-05-02T00:54:53.808Z,1801.00
2023-05-02T00:55:53.821Z,1796.00
2023-05-02T00:56:53.808Z,1794.00
2023-05-02T00:57:53.781Z,1795.00
2023-05-02T00:58:53.777Z,1796.00
2023-05-02T00:59:53.756Z,1797.00
2023-05-02T01:00:53.759Z,1794.00
2023-05-02T01:01:53.755Z,1792.00
2023-05-02T01:02:53.862Z,1790.00
2023-05-02T01:03:53.867Z,1784.00
2023-05-02T01:04:53.702Z,1797.00
2023-05-02T01:05:53.690Z,1783.00
2023-05-02T01:06:53.722Z,1777.00
2023-05-02T01:07:53.666Z,1788.00
2023-05-02T01:08:53.657Z,1784.00
2023-05-02T01:09:53.661Z,1779.00
2023-05-02T01:10:53.676Z,1782.00
2023-05-02T01:11:53.684Z,1783.00
2023-05-02T01:12:53.705Z,1775.00
2023-05-02T01:13:53.727Z,1775.00
2023-05-02T01:14:53.784Z,1780.00
2023-05-02T01:15:53.834Z,1774.00
2023-05-02T01:16:53.838Z,1779.00
2023-05-02T01:17:53.932Z,1764.00
2023-05-02T01:18:53.826Z,1765.00
2023-05-02T01:19:53.804Z,1769.00
2023-05-02T01:20:53.802Z,1767.00
2023-05-02T01:21:53.793Z,1769.00
2023-05-02T01:22:53.766Z,1775.00
2023-05-02T01:23:53.752Z,1776.00
2023-05-02T01:24:53.729Z,1776.00
2023-05-02T01:25:53.742Z,1773.00
2023-05-02T01:26:53.707Z,1770.00
2023-05-02T01:27:53.709Z,1766.00
2023-05-02T01:28:53.693Z,1766.00
2023-05-02T01:29:53.673Z,1768.00
2023-05-02T01:30:53.656Z,1767.00
2023-05-02T01:31:53.685Z,1767.00
2023-05-02T01:32:53.676Z,1769.00
2023-05-02T01:33:53.627Z,1768.00
2023-05-02T01:34:53.620Z,1771.00
2023-05-02T01:35:53.611Z,1762.00
2023-05-02T01:36:53.594Z,1774.00
2023-05-02T01:37:53.573Z,1767.00
2023-05-02T01:38:53.573Z,1764.00
2023-05-02T01:39:53.555Z,1766.00
2023-05-02T01:40:53.563Z,1763.00
2023-05-02T01:41:53.535Z,1759.00
2023-05-02T01:42:53.506Z,1754.00
2023-05-02T01:43:53.530Z,1744.00
2023-05-02T01:44:53.573Z,1775.00
2023-05-02T01:45:53.623Z,1756.00
2023-05-02T01:46:53.690Z,1754.00
2023-05-02T01:47:53.848Z,1744.00
2023-05-02T01:48:53.720Z,1739.00
2023-05-02T01:49:53.765Z,1750.00
2023-05-02T01:50:53.814Z,1753.00
2023-05-02T01:51:53.850Z,1743.00
2023-05-02T01:52:53.887Z,1757.00
2023-05-02T01:53:53.870Z,1758.00
2023-05-02T01:54:53.862Z,1756.00
2023-05-02T01:55:53.873Z,1746.00
2023-05-02T01:56:53.867Z,1750.00
2023-05-02T01:57:53.877Z,1740.00
2023-05-02T01:58:53.855Z,1747.00
2023-05-02T01:59:53.858Z,1744.00
2023-05-02T02:00:53.857Z,1739.00
2023-05-02T02:01:53.842Z,1740.00
2023-05-02T02:02:53.840Z,1741.00
2023-05-02T02:03:53.842Z,1735.00
2023-05-02T02:04:53.813Z,1753.00
2023-05-02T02:05:53.811Z,1754.00
2023-05-02T02:06:53.903Z,1737.00
2023-05-02T02:07:53.796Z,1745.00
2023-05-02T02:08:53.792Z,1739.00
2023-05-02T02:09:53.759Z,1733.00
2023-05-02T02:10:53.781Z,1721.00
2023-05-02T02:11:53.762Z,1732.00
2023-05-02T02:12:53.739Z,1729.00
2023-05-02T02:13:53.723Z,1726.00
2023-05-02T02:14:53.709Z,1735.00
2023-05-02T02:15:53.720Z,1729.00
2023-05-02T02:16:53.835Z,1731.00
2023-05-02T02:17:53.873Z,1727.00
2023-05-02T02:18:53.835Z,1713.00
2023-05-02T02:19:53.876Z,1719.00
2023-05-02T02:20:53.922Z,1727.00
2023-05-02T02:21:53.963Z,1716.00
2023-05-02T02:22:54.006Z,1714.00
2023-05-02T02:23:54.038Z,1723.00
2023-05-02T02:24:54.498Z,1706.00
2023-05-02T02:25:54.134Z,1738.00
2023-05-02T02:26:54.223Z,1717.00
2023-05-02T02:27:54.212Z,1715.00
2023-05-02T02:28:54.260Z,1707.00
2023-05-02T02:29:54.299Z,1703.00
2023-05-02T02:30:54.370Z,1704.00
2023-05-02T02:31:54.406Z,1707.00
2023-05-02T02:32:54.448Z,1719.00
2023-05-02T02:33:54.475Z,1701.00
2023-05-02T02:34:54.517Z,1698.00
2023-05-02T02:35:54.551Z,1710.00
2023-05-02T02:36:54.539Z,1711.00
2023-05-02T02:37:54.501Z,1712.00
2023-05-02T02:38:54.491Z,1712.00
2023-05-02T02:39:54.483Z,1709.00
2023-05-02T02:40:54.477Z,1710.00
2023-05-02T02:41:54.498Z,1709.00
2023-05-02T02:42:54.464Z,1695.00
2023-05-02T02:43:54.458Z,1696.00
2023-05-02T02:44:54.441Z,1696.00
2023-05-02T02:45:54.494Z,1556.00
2023-05-02T02:46:54.430Z,1446.00
2023-05-02T02:47:54.482Z,1370.00
2023-05-02T02:48:54.434Z,1288.00
2023-05-02T02:49:54.438Z,1195.00
2023-05-02T02:50:54.474Z,1102.00
2023-05-02T02:51:54.521Z,1038.00
2023-05-02T02:52:54.537Z,931.00
2023-05-02T02:53:54.589Z,834.00
2023-05-02T02:54:54.609Z,744.00
2023-05-02T02:55:54.663Z,655.00
2023-05-02T02:56:54.724Z,626.00
2023-05-02T02:57:54.769Z,599.00
2023-05-02T02:58:54.809Z,570.00
2023-05-02T02:59:54.882Z,553.00
2023-05-02T03:00:54.931Z,519.00
2023-05-02T03:01:55.040Z,500.00
2023-05-02T03:02:55.117Z,503.00
2023-05-02T03:03:55.184Z,501.00
2023-05-02T03:04:55.187Z,499.00
2023-05-02T03:05:55.256Z,495.00
2023-05-02T03:06:55.383Z,502.00
2023-05-02T03:07:55.353Z,501.00
2023-05-02T03:08:55.402Z,499.00
2023-05-02T03:09:55.409Z,499.00
2023-05-02T03:10:55.393Z,480.00
2023-05-02T03:11:55.391Z,473.00
2023-05-02T03:12:55.378Z,471.00
2023-05-02T03:13:55.382Z,440.00
2023-05-02T03:14:55.353Z,486.00
2023-05-02T03:15:55.441Z,500.00
2023-05-02T03:16:55.344Z,505.00
2023-05-02T03:17:55.412Z,499.00
2023-05-02T03:18:55.321Z,501.00
2023-05-02T03:19:55.347Z,503.00
2023-05-02T03:20:55.322Z,502.00
2023-05-02T03:21:55.328Z,500.00
2023-05-02T03:22:55.328Z,500.00
2023-05-02T03:23:55.324Z,515.00
2023-05-02T03:24:55.330Z,512.00
2023-05-02T03:25:55.318Z,503.00
2023-05-02T03:26:55.307Z,506.00
2023-05-02T03:27:55.333Z,518.00
2023-05-02T03:28:55.337Z,501.00
2023-05-02T03:29:55.348Z,508.00
2023-05-02T03:30:55.360Z,502.00
2023-05-02T03:31:55.473Z,502.00
2023-05-02T03:32:55.419Z,508.00
2023-05-02T03:33:55.423Z,500.00
2023-05-02T03:34:55.447Z,502.00
2023-05-02T03:35:55.440Z,502.00
2023-05-02T03:36:55.434Z,500.00
2023-05-02T03:37:55.435Z,493.00
2023-05-02T03:38:55.444Z,499.00
2023-05-02T03:39:55.442Z,485.00
2023-05-02T03:40:55.434Z,508.00
2023-05-02T03:41:55.449Z,500.00
2023-05-02T03:42:55.431Z,504.00
2023-05-02T03:43:55.438Z,507.00
2023-05-02T03:44:55.441Z,499.00
2023-05-02T03:45:55.446Z,512.00
2023-05-02T03:46:55.515Z,502.00
2023-05-02T03:47:55.539Z,502.00
2023-05-02T03:48:55.441Z,508.00
2023-05-02T03:49:55.450Z,514.00
2023-05-02T03:50:55.448Z,510.00
2023-05-02T03:51:55.451Z,502.00
2023-05-02T03:52:55.466Z,500.00
2023-05-02T03:53:55.463Z,508.00
2023-05-02T03:54:55.504Z,505.00
2023-05-02T03:55:55.545Z,510.00
2023-05-02T03:56:55.623Z,500.00
2023-05-02T03:57:55.642Z,503.00
2023-05-02T03:58:55.680Z,503.00
2023-05-02T03:59:55.743Z,501.00
2023-05-02T04:00:55.763Z,511.00
2023-05-02T04:01:55.923Z,502.00
2023-05-02T04:02:55.913Z,502.00
2023-05-02T04:03:55.925Z,492.00
2023-05-02T04:04:55.818Z,480.00
2023-05-02T04:05:55.821Z,466.00
2023-05-02T04:06:55.875Z,477.00
2023-05-02T04:07:55.818Z,501.00
2023-05-02T04:08:55.824Z,503.00
2023-05-02T04:09:55.833Z,505.00
2023-05-02T04:10:55.825Z,504.00
2023-05-02T04:11:55.862Z,504.00
2023-05-02T04:12:55.828Z,503.00
2023-05-02T04:13:55.836Z,509.00
2023-05-02T04:14:55.845Z,502.00
2023-05-02T04:15:55.911Z,502.00
2023-05-02T04:16:55.961Z,502.00
2023-05-02T04:17:55.953Z,497.00
2023-05-02T04:18:55.903Z,503.00
2023-05-02T04:19:55.909Z,492.00
2023-05-02T04:20:55.918Z,500.00
2023-05-02T04:21:55.929Z,502.00
2023-05-02T04:22:55.897Z,500.00
2023-05-02T04:23:55.904Z,510.00
2023-05-02T04:24:55.906Z,515.00
2023-05-02T04:25:55.909Z,511.00
2023-05-02T04:26:55.908Z,515.00
2023-05-02T04:27:55.933Z,515.00
2023-05-02T04:28:55.915Z,516.00
2023-05-02T04:29:55.934Z,515.00
2023-05-02T04:30:56.003Z,508.00
2023-05-02T04:31:55.918Z,512.00
2023-05-02T04:32:55.969Z,510.00
2023-05-02T04:33:55.936Z,501.00
2023-05-02T04:34:55.964Z,512.00
2023-05-02T04:35:55.954Z,505.00
2023-05-02T04:36:56.005Z,517.00
2023-05-02T04:37:55.978Z,526.00
2023-05-02T04:38:55.981Z,518.00
2023-05-02T04:39:55.972Z,526.00
2023-05-02T04:40:55.983Z,513.00
2023-05-02T04:41:56.029Z,510.00
2023-05-02T04:42:56.001Z,518.00
2023-05-02T04:43:56.001Z,505.00
2023-05-02T04:44:56.004Z,509.00
2023-05-02T04:45:56.058Z,508.00
2023-05-02T04:46:56.015Z,512.00
2023-05-02T04:47:56.093Z,505.00
2023-05-02T04:48:56.028Z,500.00
2023-05-02T04:49:56.035Z,507.00
2023-05-02T04:50:56.097Z,507.00
2023-05-02T04:51:56.188Z,516.00
2023-05-02T04:52:56.228Z,520.00
2023-05-02T04:53:56.272Z,511.00
2023-05-02T04:54:56.336Z,513.00
2023-05-02T04:55:56.394Z,511.00
2023-05-02T04:56:56.454Z,520.00
2023-05-02T04:57:56.510Z,517.00
2023-05-02T04:58:56.562Z,512.00
2023-05-02T04:59:56.643Z,518.00
2023-05-02T05:00:56.678Z,514.00
2023-05-02T05:01:56.801Z,511.00
2023-05-02T05:02:59.123Z,518.00
2023-05-02T05:03:56.968Z,512.00
2023-05-02T05:04:56.889Z,511.00
2023-05-02T05:05:56.794Z,507.00
2023-05-02T05:06:56.886Z,510.00
2023-05-02T05:07:56.808Z,525.00
2023-05-02T05:08:56.824Z,563.00
2023-05-02T05:09:56.861Z,565.00
2023-05-02T05:10:56.829Z,578.00
2023-05-02T05:11:56.840Z,606.00
2023-05-02T05:12:56.833Z,660.00
2023-05-02T05:13:56.840Z,570.00
2023-05-02T05:14:56.886Z,595.00
2023-05-02T05:15:56.874Z,651.00
2023-05-02T05:16:56.853Z,856.00
2023-05-02T05:17:56.891Z,1190.00
2023-05-02T05:18:56.844Z,1293.00
2023-05-02T05:19:56.913Z,1326.00
2023-05-02T05:20:56.865Z,1365.00
2023-05-02T05:21:56.885Z,1409.00
2023-05-02T05:22:56.853Z,1438.00
2023-05-02T05:23:56.857Z,1487.00
2023-05-02T05:24:56.856Z,1522.00
2023-05-02T05:25:56.861Z,1557.00
2023-05-02T05:26:56.878Z,1591.00
2023-05-02T05:27:56.913Z,1610.00
2023-05-02T05:28:56.967Z,1674.00
2023-05-02T05:29:56.957Z,1676.00
2023-05-02T05:30:56.949Z,1687.00
2023-05-02T05:31:57.059Z,1718.00
2023-05-02T05:32:57.066Z,1783.00
2023-05-02T05:33:56.987Z,1891.00
2023-05-02T05:34:56.932Z,1960.00
2023-05-02T05:35:56.926Z,2004.00
2023-05-02T05:36:56.927Z,2007.00
2023-05-02T05:37:56.934Z,2009.00
2023-05-02T05:38:56.932Z,2031.00
2023-05-02T05:39:56.932Z,2013.00
2023-05-02T05:40:56.920Z,2052.00
2023-05-02T05:41:56.943Z,2122.00
2023-05-02T05:42:56.941Z,2225.00
2023-05-02T05:43:56.945Z,2017.00
2023-05-02T05:44:56.911Z,2063.00
2023-05-02T05:45:56.914Z,2147.00
2023-05-02T05:46:57.053Z,2272.00
2023-05-02T05:47:56.942Z,2423.00
2023-05-02T05:48:56.911Z,2448.00
2023-05-02T05:49:56.947Z,2468.00
2023-05-02T05:50:56.908Z,2505.00
2023-05-02T05:51:56.962Z,2478.00
2023-05-02T05:52:56.892Z,2552.00
2023-05-02T05:53:56.898Z,2553.00
2023-05-02T05:54:56.861Z,2564.00
2023-05-02T05:55:56.930Z,2604.00
2023-05-02T05:56:56.868Z,2673.00
2023-05-02T05:57:56.865Z,2798.00
2023-05-02T05:58:56.864Z,2851.00
2023-05-02T05:59:56.867Z,2902.00
2023-05-02T06:00:56.847Z,2968.00
2023-05-02T06:01:56.891Z,3036.00
2023-05-02T06:02:57.044Z,3037.00
2023-05-02T06:03:56.938Z,3048.00
2023-05-02T06:04:56.937Z,3071.00
2023-05-02T06:05:56.871Z,3124.00
2023-05-02T06:06:56.916Z,3196.00
2023-05-02T06:07:56.884Z,3239.00
2023-05-02T06:08:56.851Z,3261.00
2023-05-02T06:09:56.932Z,3299.00
2023-05-02T06:10:56.840Z,3330.00
2023-05-02T06:11:56.813Z,3360.00
2023-05-02T06:12:56.924Z,3367.00
2023-05-02T06:13:56.982Z,3384.00
2023-05-02T06:14:56.945Z,3439.00
2023-05-02T06:15:57.051Z,3480.00
2023-05-02T06:16:57.020Z,3488.00
2023-05-02T06:17:57.124Z,3496.00
2023-05-02T06:18:57.110Z,3503.00
2023-05-02T06:19:57.102Z,3505.00
2023-05-02T06:20:57.079Z,3510.00
2023-05-02T06:21:57.078Z,3523.00
2023-05-02T06:22:57.084Z,3576.00
2023-05-02T06:23:57.097Z,3632.00
2023-05-02T06:24:57.053Z,3685.00
2023-05-02T06:25:57.043Z,3687.00
2023-05-02T06:26:57.015Z,3693.00
2023-05-02T06:27:57.017Z,3710.00
2023-05-02T06:28:56.993Z,3689.00
2023-05-02T06:29:57.016Z,3700.00
2023-05-02T06:30:56.964Z,3724.00
2023-05-02T06:31:57.064Z,3756.00
2023-05-02T06:32:57.019Z,3803.00
2023-05-02T06:33:56.947Z,3803.00
2023-05-02T06:34:56.922Z,3814.00
2023-05-02T06:35:57.799Z,3832.00
2023-05-02T06:36:56.922Z,3849.00
2023-05-02T06:37:56.877Z,3857.00
2023-05-02T06:38:56.879Z,3876.00
2023-05-02T06:39:56.852Z,3887.00
2023-05-02T06:40:56.871Z,3888.00
2023-05-02T06:41:56.838Z,3891.00
2023-05-02T06:42:56.843Z,3900.00
2023-05-02T06:43:57.010Z,2820.00
2023-05-02T06:44:56.854Z,2138.00
2023-05-02T06:45:56.788Z,1507.00
2023-05-02T06:46:56.847Z,1476.00
2023-05-02T06:47:56.953Z,1556.00
2023-05-02T06:48:56.835Z,1596.00
2023-05-02T06:49:56.902Z,1636.00
2023-05-02T06:50:56.834Z,1789.00
2023-05-02T06:51:56.941Z,1791.00
2023-05-02T06:52:56.885Z,1812.00
2023-05-02T06:53:56.836Z,1887.00
2023-05-02T06:54:56.877Z,2051.00
2023-05-02T06:55:56.880Z,2270.00
2023-05-02T06:56:56.840Z,2393.00
2023-05-02T06:57:56.835Z,2470.00
2023-05-02T06:58:56.860Z,2602.00
2023-05-02T06:59:56.850Z,2665.00
2023-05-02T07:00:56.914Z,2746.00
2023-05-02T07:01:56.924Z,2823.00
2023-05-02T07:02:57.003Z,2840.00
2023-05-02T07:03:57.052Z,2793.00
2023-05-02T07:04:56.983Z,2779.00
2023-05-02T07:05:57.004Z,2710.00
2023-05-02T07:06:57.079Z,2736.00
2023-05-02T07:07:57.063Z,2709.00
2023-05-02T07:08:56.969Z,2720.00
2023-05-02T07:09:56.978Z,2707.00
2023-05-02T07:10:56.945Z,2653.00
2023-05-02T07:11:56.976Z,2602.00
2023-05-02T07:12:56.986Z,2593.00
2023-05-02T07:13:56.932Z,2589.00
2023-05-02T07:14:56.953Z,2632.00
2023-05-02T07:15:57.013Z,2576.00
2023-05-02T07:16:57.071Z,2542.00
2023-05-02T07:17:57.183Z,2527.00
2023-05-02T07:18:57.142Z,2530.00
2023-05-02T07:19:57.182Z,2601.00
2023-05-02T07:20:57.248Z,2574.00
2023-05-02T07:21:57.287Z,2571.00
2023-05-02T07:22:57.363Z,2614.00
2023-05-02T07:23:57.398Z,2612.00
2023-05-02T07:24:57.481Z,2588.00
2023-05-02T07:25:57.508Z,2532.00
2023-05-02T07:26:57.491Z,2533.00
2023-05-02T07:27:57.435Z,2521.00
2023-05-02T07:28:57.435Z,2537.00
2023-05-02T07:29:57.580Z,2539.00
2023-05-02T07:30:57.416Z,2494.00
2023-05-02T07:31:57.469Z,2527.00
2023-05-02T07:32:57.484Z,2577.00
2023-05-02T07:33:57.366Z,2643.00
2023-05-02T07:34:57.370Z,2567.00
2023-05-02T07:35:57.395Z,2629.00
2023-05-02T07:36:57.353Z,2659.00
2023-05-02T07:37:57.411Z,2672.00
2023-05-02T07:38:57.433Z,2606.00
2023-05-02T07:39:57.555Z,2585.00
2023-05-02T07:40:57.448Z,2488.00
2023-05-02T07:41:57.509Z,2446.00
2023-05-02T07:42:57.432Z,2439.00
2023-05-02T07:43:57.435Z,2523.00
2023-05-02T07:44:57.449Z,2476.00
2023-05-02T07:45:57.447Z,2298.00
2023-05-02T07:46:57.424Z,2195.00
2023-05-02T07:47:57.427Z,2195.00
2023-05-02T07:48:57.363Z,2162.00
2023-05-02T07:49:57.524Z,2096.00
2023-05-02T07:50:57.356Z,2083.00
2023-05-02T07:51:57.360Z,2023.00
2023-05-02T07:52:57.327Z,1988.00
2023-05-02T07:53:57.325Z,1989.00
2023-05-02T07:54:57.384Z,1999.00
2023-05-02T07:55:57.327Z,2014.00
2023-05-02T07:56:57.331Z,2050.00
2023-05-02T07:57:57.297Z,2089.00
2023-05-02T07:58:57.316Z,2077.00
2023-05-02T07:59:57.409Z,2027.00
2023-05-02T08:00:57.278Z,1983.00
2023-05-02T08:01:57.282Z,1944.00
2023-05-02T08:02:57.362Z,1954.00
2023-05-02T08:03:57.509Z,1892.00
2023-05-02T08:04:57.380Z,1837.00
2023-05-02T08:05:57.402Z,1812.00
2023-05-02T08:06:57.595Z,1782.00
2023-05-02T08:07:57.462Z,1847.00
2023-05-02T08:08:57.540Z,1853.00
2023-05-02T08:09:57.571Z,1838.00
2023-05-02T08:10:57.610Z,1789.00
2023-05-02T08:11:57.676Z,1816.00
2023-05-02T08:12:57.698Z,1770.00
2023-05-02T08:13:57.744Z,1727.00
2023-05-02T08:14:57.814Z,1672.00
2023-05-02T08:15:57.956Z,1623.00
2023-05-02T08:16:57.927Z,1591.00
2023-05-02T08:17:58.033Z,1587.00
2023-05-02T08:18:58.035Z,1567.00
2023-05-02T08:19:58.243Z,1569.00
2023-05-02T08:20:58.006Z,1518.00
2023-05-02T08:21:57.997Z,1414.00
2023-05-02T08:22:59.942Z,1262.00
2023-05-02T08:23:57.977Z,1126.00
2023-05-02T08:24:57.991Z,1097.00
2023-05-02T08:25:57.981Z,1062.00
2023-05-02T08:26:58.021Z,894.00
2023-05-02T08:27:58.127Z,839.00
2023-05-02T08:28:58.183Z,757.00
2023-05-02T08:30:00.653Z,649.00
2023-05-02T08:30:58.269Z,610.00
2023-05-02T08:31:58.346Z,634.00
2023-05-02T08:32:58.299Z,605.00
2023-05-02T08:33:58.205Z,617.00
2023-05-02T08:34:58.226Z,636.00
2023-05-02T08:35:58.224Z,706.00
2023-05-02T08:36:58.575Z,844.00
2023-05-02T08:37:58.198Z,926.00
2023-05-02T08:38:58.175Z,1049.00
2023-05-02T08:39:58.426Z,1093.00
2023-05-02T08:40:58.182Z,1012.00
2023-05-02T08:41:58.204Z,1015.00
2023-05-02T08:42:58.198Z,1043.00
2023-05-02T08:43:58.192Z,1101.00
2023-05-02T08:44:58.209Z,1208.00
2023-05-02T08:45:58.163Z,1248.00
2023-05-02T08:46:58.225Z,1297.00
2023-05-02T08:47:58.205Z,1443.00
2023-05-02T08:48:58.125Z,1542.00
2023-05-02T08:49:58.442Z,1473.00
2023-05-02T08:50:58.108Z,1499.00
2023-05-02T08:51:58.156Z,1503.00
2023-05-02T08:52:58.097Z,1522.00
2023-05-02T08:53:58.091Z,1572.00
2023-05-02T08:54:58.333Z,1563.00
2023-05-02T08:55:58.068Z,1546.00
2023-05-02T08:56:58.040Z,1498.00
2023-05-02T08:57:58.049Z,1477.00
2023-05-02T09:00:17.091Z,500.00
2023-05-02T09:01:17.128Z,500.00
2023-05-02T09:02:17.092Z,500.00
2023-05-02T09:03:17.130Z,500.00
2023-05-02T09:04:17.209Z,500.00
2023-05-02T09:05:17.157Z,500.00
2023-05-02T09:06:17.220Z,500.00
2023-05-02T09:07:17.189Z,500.00
2023-05-02T09:08:17.308Z,500.00
2023-05-02T09:09:18.994Z,500.00
2023-05-02T09:10:17.235Z,500.00
2023-05-02T09:11:17.266Z,497.00
2023-05-02T09:12:17.272Z,501.00
2023-05-02T09:13:17.284Z,511.00
2023-05-02T09:14:17.340Z,515.00
2023-05-02T09:15:20.053Z,511.00
2023-05-02T09:16:17.370Z,511.00
2023-05-02T09:17:17.320Z,511.00
2023-05-02T09:18:17.362Z,511.00
2023-05-02T09:19:17.338Z,512.00
2023-05-02T09:20:17.373Z,501.00
2023-05-02T09:21:19.690Z,514.00
2023-05-02T09:22:17.396Z,515.00
2023-05-02T09:23:17.423Z,516.00
2023-05-02T09:24:17.396Z,517.00
2023-05-02T09:25:17.416Z,521.00
2023-05-02T09:26:17.431Z,551.00
2023-05-02T09:27:17.417Z,518.00
2023-05-02T09:28:17.457Z,528.00
2023-05-02T09:29:17.464Z,549.00
2023-05-02T09:30:17.473Z,584.00
2023-05-02T09:31:26.872Z,645.00
2023-05-02T09:32:18.589Z,520.00
2023-05-02T09:33:18.220Z,537.00
2023-05-02T09:34:17.558Z,556.00
2023-05-02T09:35:17.519Z,592.00
2023-05-02T09:36:17.510Z,646.00
2023-05-02T09:37:17.519Z,663.00
2023-05-02T09:38:17.560Z,681.00
2023-05-02T09:39:17.533Z,752.00
2023-05-02T09:40:17.534Z,696.00
2023-05-02T09:41:17.554Z,698.00
2023-05-02T09:42:17.547Z,728.00
2023-05-02T09:43:17.566Z,728.00
2023-05-02T09:44:17.565Z,750.00
2023-05-02T09:45:17.588Z,774.00
2023-05-02T09:46:17.719Z,825.00
2023-05-02T09:47:17.701Z,872.00
2023-05-02T09:48:17.693Z,941.00
2023-05-02T09:49:17.642Z,966.00
2023-05-02T09:50:17.633Z,1017.00
2023-05-02T09:51:17.687Z,1035.00
2023-05-02T09:52:17.645Z,1032.00
2023-05-02T09:53:17.691Z,1011.00
2023-05-02T09:54:17.693Z,1004.00
2023-05-02T09:55:17.701Z,1056.00
2023-05-02T09:56:17.709Z,1145.00
2023-05-02T09:57:17.721Z,1191.00
2023-05-02T09:58:17.730Z,1210.00
2023-05-02T09:59:17.754Z,1129.00
2023-05-02T10:00:17.755Z,1052.00
2023-05-02T10:01:17.782Z,978.00
2023-05-02T10:02:17.750Z,917.00
2023-05-02T10:03:17.885Z,836.00
2023-05-02T10:04:17.927Z,827.00
2023-05-02T10:05:17.766Z,718.00
2023-05-02T10:06:17.815Z,688.00
2023-05-02T10:07:17.780Z,646.00
2023-05-02T10:08:17.820Z,651.00
2023-05-02T10:09:21.454Z,628.00
2023-05-02T10:10:17.902Z,624.00
2023-05-02T10:11:17.852Z,606.00
2023-05-02T10:12:17.860Z,580.00
2023-05-02T10:13:17.949Z,574.00
2023-05-02T10:14:17.897Z,572.00
2023-05-02T10:15:17.894Z,567.00
2023-05-02T10:16:17.966Z,552.00
2023-05-02T10:17:17.962Z,533.00
2023-05-02T10:18:18.028Z,531.00
2023-05-02T10:19:17.923Z,562.00
2023-05-02T10:20:17.940Z,563.00
2023-05-02T10:21:17.970Z,568.00
2023-05-02T10:22:17.951Z,582.00
2023-05-02T10:23:17.987Z,597.00
2023-05-02T10:24:17.969Z,636.00
2023-05-02T10:25:18.001Z,615.00
2023-05-02T10:26:18.010Z,606.00
2023-05-02T10:27:18.012Z,617.00
2023-05-02T10:28:18.020Z,618.00
2023-05-02T10:29:17.998Z,619.00
2023-05-02T10:30:17.993Z,614.00
2023-05-02T10:31:18.126Z,600.00
2023-05-02T10:32:18.020Z,648.00
2023-05-02T10:33:18.050Z,619.00
2023-05-02T10:34:18.081Z,623.00
2023-05-02T10:35:18.024Z,631.00
2023-05-02T10:36:18.094Z,641.00
2023-05-02T10:37:18.037Z,641.00
2023-05-02T10:38:18.075Z,619.00
2023-05-02T10:39:18.038Z,623.00
2023-05-02T10:40:18.055Z,632.00
2023-05-02T10:41:18.036Z,645.00
2023-05-02T10:42:18.047Z,702.00
2023-05-02T10:43:18.057Z,715.00
2023-05-02T10:44:18.055Z,653.00
2023-05-02T10:45:18.056Z,664.00
2023-05-02T10:46:18.075Z,684.00
2023-05-02T10:47:18.070Z,724.00
2023-05-02T10:48:18.091Z,716.00
2023-05-02T10:49:18.084Z,662.00
2023-05-02T10:50:18.095Z,582.00
2023-05-02T10:51:18.084Z,560.00
2023-05-02T10:52:18.092Z,574.00
2023-05-02T10:53:18.091Z,599.00
2023-05-02T10:54:18.149Z,607.00
2023-05-02T10:55:18.175Z,609.00
2023-05-02T10:56:18.111Z,606.00
2023-05-02T10:57:18.112Z,610.00
2023-05-02T10:58:18.143Z,582.00
2023-05-02T10:59:18.175Z,527.00
2023-05-02T11:00:18.164Z,509.00
2023-05-02T11:01:18.167Z,520.00
2023-05-02T11:02:18.192Z,518.00
2023-05-02T11:03:18.222Z,534.00
2023-05-02T11:04:18.273Z,538.00
2023-05-02T11:05:18.202Z,515.00
2023-05-02T11:06:18.285Z,515.00
2023-05-02T11:07:18.216Z,506.00
2023-05-02T11:08:20.224Z,502.00
2023-05-02T11:09:18.227Z,490.00
2023-05-02T11:10:18.281Z,471.00
2023-05-02T11:11:18.225Z,458.00
2023-05-02T11:12:18.229Z,458.00
2023-05-02T11:13:18.310Z,456.00
2023-05-02T11:14:18.586Z,501.00
2023-05-02T11:15:18.254Z,515.00
2023-05-02T11:16:18.292Z,518.00
2023-05-02T11:17:18.276Z,518.00
2023-05-02T11:18:18.313Z,475.00
2023-05-02T11:19:18.280Z,470.00
2023-05-02T11:20:18.254Z,493.00
2023-05-02T11:21:18.264Z,463.00
2023-05-02T11:22:18.345Z,459.00
2023-05-02T11:23:18.318Z,452.00
2023-05-02T11:24:18.291Z,458.00
2023-05-02T11:25:18.330Z,511.00
2023-05-02T11:26:18.329Z,558.00
2023-05-02T11:27:18.340Z,535.00
2023-05-02T11:28:18.409Z,550.00
2023-05-02T11:29:18.353Z,620.00
2023-05-02T11:30:18.370Z,638.00
2023-05-02T11:31:18.398Z,638.00
2023-05-02T11:32:18.487Z,630.00
2023-05-02T11:33:18.490Z,631.00
2023-05-02T11:34:18.395Z,616.00
2023-05-02T11:35:18.402Z,582.00
2023-05-02T11:36:18.410Z,563.00
2023-05-02T11:37:18.406Z,558.00
2023-05-02T11:38:18.438Z,557.00
2023-05-02T11:39:18.427Z,575.00
2023-05-02T11:40:18.438Z,579.00
2023-05-02T11:41:18.423Z,569.00
2023-05-02T11:42:18.438Z,574.00
2023-05-02T11:43:18.479Z,552.00
2023-05-02T11:44:18.517Z,543.00
2023-05-02T11:45:18.486Z,558.00
2023-05-02T11:46:18.521Z,555.00
2023-05-02T11:47:18.500Z,568.00
2023-05-02T11:48:18.541Z,565.00
2023-05-02T11:49:18.548Z,572.00
2023-05-02T11:50:18.581Z,611.00
2023-05-02T11:51:18.561Z,661.00
2023-05-02T11:52:18.566Z,744.00
2023-05-02T11:53:18.573Z,785.00
2023-05-02T11:54:18.570Z,832.00
2023-05-02T11:55:18.549Z,840.00
2023-05-02T11:56:18.557Z,841.00
2023-05-02T11:57:18.559Z,844.00
2023-05-02T11:58:18.636Z,842.00
2023-05-02T11:59:18.618Z,849.00
2023-05-02T12:00:18.585Z,880.00
2023-05-02T12:01:18.643Z,928.00
2023-05-02T12:02:18.660Z,993.00
2023-05-02T12:03:18.758Z,998.00
2023-05-02T12:04:18.615Z,1023.00
2023-05-02T12:05:18.646Z,1075.00
2023-05-02T12:06:18.991Z,1118.00
2023-05-02T12:07:18.657Z,1132.00
2023-05-02T12:08:18.672Z,1137.00
2023-05-02T12:09:18.644Z,1143.00
2023-05-02T12:10:18.673Z,1195.00
2023-05-02T12:11:18.655Z,1214.00
2023-05-02T12:12:18.702Z,1260.00
2023-05-02T12:13:18.705Z,1260.00
2023-05-02T12:14:18.670Z,1277.00
2023-05-02T12:15:18.649Z,1285.00
2023-05-02T12:16:18.716Z,1298.00
2023-05-02T12:17:18.665Z,1313.00
2023-05-02T12:18:20.781Z,1322.00